Terminal Aerodrome Forecast
Issued by NWS

Home | Current Version | Previous Version | Text Only | Print | Product List | Glossary On
Versions: 1 2 3 4 5 6 7 8 9 10 11 12 13 14 15 16 17 18 19 20 21 22 23 24 25
000
FTUS41 KBOX 310105 AAA
TAFACK
TAF AMD
KACK 310105Z 3101/3124 19005KT 1/4SM FG VV002
     FM311300 12008KT P6SM OVC015
     FM311900 11010KT P6SM BKN040
     FM312100 11010KT P6SM VCSH BKN090=

USA.gov is the U.S. government's official web portal to all federal, state and local government web resources and services.